Time;durP1;ratioP1;P1;durP2;ratioP2;P2;SDS_P1;SDS_P2;PMS_P1;PMS_P2;Temp;Humidity;BMP_temperature;BMP_pressure;BME280_temperature;BME280_humidity;BME280_pressure;Samples;Min_cycle;Max_cycle;Signal;HPM_P1;HPM_P2
2022/10/05 00:01:24;;;;;;;13.27;9.05;;;15.40;99.90;;;;;;4978765;28;93512;-31
2022/10/05 00:03:52;;;;;;;9.60;8.52;;;15.40;99.90;;;;;;4979627;28;93215;-30
2022/10/05 00:06:17;;;;;;;13.38;8.73;;;15.40;99.90;;;;;;4978779;28;94806;-30
2022/10/05 00:08:43;;;;;;;11.88;8.07;;;15.40;99.90;;;;;;4979030;28;94639;-30
2022/10/05 00:11:13;;;;;;;9.85;8.32;;;15.40;99.90;;;;;;4979768;28;92260;-31
2022/10/05 00:13:39;;;;;;;10.95;7.60;;;15.30;99.90;;;;;;4979027;28;93737;-29
2022/10/05 00:16:10;;;;;;;10.80;8.80;;;15.30;99.90;;;;;;4978540;28;95041;-32
2022/10/05 00:18:37;;;;;;;11.45;8.68;;;15.30;99.90;;;;;;4978708;28;94313;-31
2022/10/05 00:21:19;;;;;;;9.45;7.57;;;15.40;99.90;;;;;;4979130;28;92710;-30
2022/10/05 00:23:44;;;;;;;9.32;7.70;;;15.30;99.90;;;;;;4978526;28;92482;-32
2022/10/05 00:26:17;;;;;;;8.85;7.65;;;15.30;99.90;;;;;;4978264;28;95634;-30
2022/10/05 00:28:43;;;;;;;11.32;7.60;;;15.40;99.90;;;;;;4978750;28;95564;-31
2022/10/05 00:31:29;;;;;;;12.23;8.18;;;15.30;99.90;;;;;;4979041;28;92209;-30
2022/10/05 00:33:55;;;;;;;9.05;7.28;;;15.30;99.90;;;;;;4960481;28;93769;-32
2022/10/05 00:36:21;;;;;;;11.30;7.57;;;15.30;99.90;;;;;;4978364;28;94483;-30
2022/10/05 00:38:47;;;;;;;16.92;8.68;;;15.30;99.90;;;;;;4978531;28;93835;-33
2022/10/05 00:41:52;;;;;;;9.32;7.88;;;15.30;99.90;;;;;;4978953;28;94692;-30
2022/10/05 00:44:45;;;;;;;7.30;6.57;;;15.30;99.90;;;;;;4968561;28;92121;-31
2022/10/05 00:47:24;;;;;;;8.60;7.30;;;15.30;99.90;;;;;;4978831;28;94526;-30
2022/10/05 00:50:11;;;;;;;8.18;6.63;;;15.30;99.90;;;;;;5025280;22;94993;-31
2022/10/05 00:52:47;;;;;;;8.63;7.03;;;15.30;99.90;;;;;;4961667;28;94238;-29
2022/10/05 00:55:41;;;;;;;10.68;7.60;;;15.20;99.90;;;;;;4958534;28;93538;-30
2022/10/05 00:58:26;;;;;;;12.98;7.75;;;15.20;99.90;;;;;;4958483;28;94717;-32
2022/10/05 01:00:55;;;;;;;8.13;7.32;;;15.30;99.90;;;;;;4958152;28;95446;-31
2022/10/05 01:03:24;;;;;;;8.23;7.22;;;15.30;99.90;;;;;;4959070;28;94501;-30
2022/10/05 01:06:21;;;;;;;9.82;7.75;;;15.30;99.90;;;;;;4958243;28;94207;-31
2022/10/05 01:08:51;;;;;;;7.18;6.30;;;15.30;99.90;;;;;;4958681;28;95115;-31
2022/10/05 01:11:25;;;;;;;9.88;7.00;;;15.20;99.90;;;;;;4958514;28;94574;-29
2022/10/05 01:14:02;;;;;;;11.30;7.15;;;15.20;99.90;;;;;;4958879;28;94470;-34
2022/10/05 01:16:46;;;;;;;10.00;7.18;;;15.20;99.90;;;;;;4957910;28;94045;-32
2022/10/05 01:19:26;;;;;;;8.73;6.82;;;15.20;99.90;;;;;;4956826;28;95710;-33
2022/10/05 01:22:01;;;;;;;8.98;6.50;;;15.30;99.90;;;;;;4958501;28;95361;-29
2022/10/05 01:24:46;;;;;;;14.82;7.68;;;15.20;99.90;;;;;;4958179;28;94153;-32
2022/10/05 01:27:37;;;;;;;10.52;8.95;;;15.30;99.90;;;;;;4958953;28;95094;-31
2022/10/05 01:30:09;;;;;;;9.77;7.47;;;15.30;99.90;;;;;;4957386;28;94681;-30
2022/10/05 01:33:10;;;;;;;12.75;9.40;;;15.30;99.90;;;;;;4957289;28;94491;-30
2022/10/05 01:35:42;;;;;;;10.20;8.55;;;15.30;99.90;;;;;;4958184;28;94522;-32
2022/10/05 01:38:20;;;;;;;17.15;9.50;;;15.30;99.90;;;;;;4958837;28;92764;-32
2022/10/05 01:41:21;;;;;;;12.20;9.40;;;15.30;99.90;;;;;;4958376;28;94994;-31
2022/10/05 01:44:06;;;;;;;11.65;9.20;;;15.20;99.90;;;;;;4957532;28;94586;-30
2022/10/05 01:46:42;;;;;;;10.88;9.45;;;15.20;99.90;;;;;;4957275;28;94910;-31
2022/10/05 01:49:34;;;;;;;11.02;8.45;;;15.30;99.90;;;;;;4957805;28;93076;-31
2022/10/05 01:52:30;;;;;;;11.65;9.35;;;15.20;99.90;;;;;;4957920;28;95214;-29
2022/10/05 01:54:58;;;;;;;10.63;9.52;;;15.20;99.90;;;;;;4957859;28;94527;-31
2022/10/05 01:57:30;;;;;;;14.55;10.13;;;15.20;99.90;;;;;;4957606;28;93557;-30
2022/10/05 02:00:15;;;;;;;19.38;9.85;;;15.20;99.90;;;;;;4957181;28;94080;-32
2022/10/05 02:03:03;;;;;;;10.98;9.88;;;15.20;99.90;;;;;;4957074;28;94672;-31
2022/10/05 02:05:47;;;;;;;;;;;15.20;99.90;;;;;;4916101;28;94958;-32
2022/10/05 02:08:18;;;;;;;15.70;11.93;;;15.20;99.90;;;;;;4959212;28;92407;-33
2022/10/05 02:11:20;;;;;;;13.68;10.52;;;15.20;99.90;;;;;;4956165;28;93328;-31
2022/10/05 02:13:56;;;;;;;13.00;10.55;;;15.20;99.90;;;;;;4911649;28;96780;-32
2022/10/05 02:16:50;;;;;;;10.40;9.30;;;15.10;99.90;;;;;;4955003;28;95410;-31
2022/10/05 02:19:34;;;;;;;12.18;10.00;;;15.20;99.90;;;;;;4955236;28;94380;-31
2022/10/05 02:22:25;;;;;;;10.32;9.23;;;15.20;99.90;;;;;;4956239;28;92641;-32
2022/10/05 02:24:55;;;;;;;16.45;10.10;;;15.20;99.90;;;;;;4957084;28;94654;-31
2022/10/05 02:27:27;;;;;;;15.82;9.23;;;15.20;99.90;;;;;;4956384;28;95512;-31
2022/10/05 02:29:58;;;;;;;13.60;8.77;;;15.20;99.90;;;;;;4957106;28;94642;-33
2022/10/05 02:32:30;;;;;;;10.30;9.18;;;15.10;99.90;;;;;;4957516;28;93422;-31
2022/10/05 02:35:03;;;;;;;12.07;8.75;;;15.20;99.90;;;;;;4955604;28;94782;-31
2022/10/05 02:37:58;;;;;;;16.05;8.70;;;15.20;99.90;;;;;;4956693;28;94644;-34
2022/10/05 02:40:38;;;;;;;9.25;7.97;;;15.20;99.90;;;;;;4956674;28;94014;-30
2022/10/05 02:43:45;;;;;;;13.50;9.52;;;15.10;99.90;;;;;;4957480;28;92496;-30
2022/10/05 02:46:16;;;;;;;10.82;8.13;;;15.10;99.90;;;;;;4952368;28;94866;-31
2022/10/05 02:48:55;;;;;;;12.48;8.68;;;15.10;99.90;;;;;;4956971;28;94589;-32
2022/10/05 02:51:32;;;;;;;13.15;9.43;;;15.10;99.90;;;;;;4956621;28;93410;-31
2022/10/05 02:54:18;;;;;;;12.15;8.65;;;15.10;99.90;;;;;;4957511;28;94768;-30
2022/10/05 02:57:12;;;;;;;11.73;9.38;;;15.10;99.90;;;;;;4956248;28;94776;-31
2022/10/05 02:59:45;;;;;;;9.27;8.27;;;15.10;99.90;;;;;;4957626;28;94754;-33
2022/10/05 03:02:26;;;;;;;15.18;8.65;;;15.10;99.90;;;;;;4956826;28;93221;-30
2022/10/05 03:05:05;;;;;;;10.32;8.35;;;15.10;99.90;;;;;;4957232;28;94647;-31
2022/10/05 03:08:04;;;;;;;8.80;7.90;;;15.00;99.90;;;;;;4956265;28;95730;-31
2022/10/05 03:10:58;;;;;;;8.93;7.60;;;15.10;99.90;;;;;;4956583;28;95467;-31
2022/10/05 03:13:29;;;;;;;11.15;8.32;;;15.10;99.90;;;;;;4956601;28;93486;-31
2022/10/05 03:16:18;;;;;;;13.38;7.70;;;15.10;99.90;;;;;;4956533;28;92513;-32
2022/10/05 03:19:09;;;;;;;11.80;9.68;;;15.10;99.90;;;;;;4957270;28;95480;-30
2022/10/05 03:21:37;;;;;;;12.32;8.07;;;15.10;99.90;;;;;;4956480;28;94577;-31
2022/10/05 03:24:21;;;;;;;10.88;7.38;;;15.10;99.90;;;;;;4957345;28;93387;-32
2022/10/05 03:27:04;;;;;;;10.15;9.00;;;15.10;99.90;;;;;;4957066;28;92557;-31
2022/10/05 03:30:02;;;;;;;10.75;8.05;;;15.10;99.90;;;;;;4959524;28;96344;-32
2022/10/05 03:32:52;;;;;;;;;;;15.00;99.90;;;;;;4915864;28;94462;-33
2022/10/05 03:35:34;;;;;;;13.80;8.07;;;15.10;99.90;;;;;;4961179;28;93638;-33
2022/10/05 03:38:24;;;;;;;11.45;8.20;;;15.00;99.90;;;;;;4959883;28;93280;-31
2022/10/05 03:40:58;;;;;;;11.40;8.10;;;15.00;99.90;;;;;;4959720;28;95050;-33
2022/10/05 03:43:42;;;;;;;11.27;7.82;;;15.00;99.90;;;;;;4959264;28;94732;-30
2022/10/05 03:46:18;;;;;;;10.35;8.63;;;15.00;99.90;;;;;;4959703;28;93243;-32
2022/10/05 03:49:07;;;;;;;10.90;8.35;;;15.00;99.90;;;;;;4959809;28;94364;-34
2022/10/05 03:51:36;;;;;;;9.57;8.57;;;14.90;99.90;;;;;;4920986;28;94893;-32
2022/10/05 03:54:14;;;;;;;11.23;8.68;;;15.00;99.90;;;;;;4959706;28;95952;-33
2022/10/05 03:56:51;;;;;;;12.88;8.80;;;15.00;99.90;;;;;;4960039;28;94627;-30
2022/10/05 03:59:34;;;;;;;10.60;9.40;;;14.90;99.90;;;;;;4959894;28;93385;-30
2022/10/05 04:02:04;;;;;;;9.88;8.75;;;14.90;99.90;;;;;;4958774;28;96080;-32
2022/10/05 04:04:43;;;;;;;12.18;10.88;;;14.80;99.90;;;;;;4958049;28;95445;-31
2022/10/05 04:07:18;;;;;;;11.73;10.07;;;14.80;99.90;;;;;;4958626;28;94769;-33
2022/10/05 04:09:47;;;;;;;12.23;8.15;;;14.80;99.90;;;;;;4959160;28;93537;-31
2022/10/05 04:12:32;;;;;;;12.95;9.60;;;14.80;99.90;;;;;;4958995;28;94856;-30
2022/10/05 04:15:27;;;;;;;12.45;9.35;;;14.80;99.90;;;;;;4959088;28;94348;-31
2022/10/05 04:18:03;;;;;;;13.15;9.98;;;14.80;99.90;;;;;;4959120;28;93483;-33
2022/10/05 04:20:44;;;;;;;11.90;10.60;;;14.70;99.90;;;;;;4959244;28;91354;-30
2022/10/05 04:23:09;;;;;;;11.23;10.02;;;14.70;99.90;;;;;;4958616;28;94709;-33
2022/10/05 04:25:42;;;;;;;11.30;8.32;;;14.70;99.90;;;;;;4957948;28;94578;-33
2022/10/05 04:28:25;;;;;;;13.90;9.70;;;14.70;99.90;;;;;;4959352;28;93122;-31
2022/10/05 04:30:53;;;;;;;12.40;9.38;;;14.70;99.90;;;;;;4958536;28;93343;-32
2022/10/05 04:33:20;;;;;;;11.23;9.43;;;14.70;99.90;;;;;;4958363;28;94073;-31
2022/10/05 04:36:20;;;;;;;12.93;9.75;;;14.70;99.90;;;;;;4958726;28;94769;-34
2022/10/05 04:39:17;;;;;;;14.88;10.93;;;14.70;99.90;;;;;;4959570;28;93061;-30
2022/10/05 04:42:31;;;;;;;14.95;11.10;;;14.70;99.90;;;;;;4958436;28;93943;-33
2022/10/05 04:45:12;;;;;;;15.77;10.30;;;14.70;99.90;;;;;;4947679;28;94087;-31
2022/10/05 04:47:56;;;;;;;12.20;10.55;;;14.60;99.90;;;;;;4958458;28;94678;-32
2022/10/05 04:51:05;;;;;;;12.10;10.80;;;14.70;99.90;;;;;;4957803;28;92378;-32
2022/10/05 04:53:45;;;;;;;11.50;10.30;;;14.60;99.90;;;;;;4958050;28;94616;-30
2022/10/05 04:56:34;;;;;;;14.10;11.77;;;14.60;99.90;;;;;;4957000;28;95564;-33
2022/10/05 04:59:34;;;;;;;13.43;11.98;;;14.60;99.90;;;;;;4957268;28;96680;-30
2022/10/05 05:02:38;;;;;;;16.13;11.48;;;14.60;99.90;;;;;;4957949;28;93922;-31
2022/10/05 05:05:25;;;;;;;15.65;11.27;;;14.50;99.90;;;;;;4958385;28;94382;-31
2022/10/05 05:08:18;;;;;;;20.70;12.43;;;14.50;99.90;;;;;;4957967;28;95184;-32
2022/10/05 05:10:59;;;;;;;12.90;10.82;;;14.50;99.90;;;;;;4957368;28;94598;-33
2022/10/05 05:13:57;;;;;;;14.40;12.80;;;14.50;99.90;;;;;;4940345;28;94286;-33
2022/10/05 05:16:29;;;;;;;13.32;11.20;;;14.40;99.90;;;;;;4957509;28;93683;-32
2022/10/05 05:19:28;;;;;;;13.48;11.90;;;14.40;99.90;;;;;;4957682;28;95428;-30
2022/10/05 05:22:10;;;;;;;19.27;13.60;;;14.40;99.90;;;;;;4958067;28;93325;-30
2022/10/05 05:24:54;;;;;;;16.10;11.65;;;14.40;99.90;;;;;;4956576;28;93935;-30
2022/10/05 05:27:39;;;;;;;17.42;13.05;;;14.30;99.90;;;;;;4958183;28;92643;-30
2022/10/05 05:30:30;;;;;;;17.23;13.32;;;14.30;99.90;;;;;;4957133;28;95459;-33
2022/10/05 05:33:07;;;;;;;18.33;13.77;;;14.30;99.90;;;;;;4956837;28;94368;-32
2022/10/05 05:35:53;;;;;;;14.57;12.97;;;14.30;99.90;;;;;;4956595;28;93283;-29
2022/10/05 05:38:42;;;;;;;17.05;11.93;;;14.30;99.90;;;;;;4957099;28;93066;-30
2022/10/05 05:41:10;;;;;;;20.33;15.52;;;14.20;99.90;;;;;;4956689;28;94783;-31
2022/10/05 05:44:07;;;;;;;18.73;14.70;;;14.20;99.90;;;;;;4957279;28;94590;-32
2022/10/05 05:46:38;;;;;;;16.17;14.57;;;14.20;99.90;;;;;;4957438;28;93511;-30
2022/10/05 05:49:49;;;;;;;17.10;13.35;;;14.20;99.90;;;;;;4957599;28;93745;-32
2022/10/05 05:52:21;;;;;;;15.02;12.93;;;14.20;99.90;;;;;;4934340;28;94763;-33
2022/10/05 05:55:35;;;;;;;15.63;13.60;;;14.20;99.90;;;;;;4957252;28;97323;-33
2022/10/05 05:58:19;;;;;;;14.10;12.60;;;14.20;99.90;;;;;;4932829;28;93550;-30
2022/10/05 06:00:47;;;;;;;17.30;13.43;;;14.20;99.90;;;;;;4956403;28;94316;-33
2022/10/05 06:03:32;;;;;;;17.15;13.30;;;14.30;99.90;;;;;;4956285;28;95059;-33
2022/10/05 06:06:03;;;;;;;15.35;12.75;;;14.30;99.90;;;;;;4956327;28;94817;-32
2022/10/05 06:08:49;;;;;;;16.00;12.77;;;14.30;99.90;;;;;;4957247;28;92113;-30
2022/10/05 06:11:29;;;;;;;19.23;12.30;;;14.30;99.90;;;;;;4956884;28;92950;-30
2022/10/05 06:14:03;;;;;;;16.65;12.93;;;14.30;99.90;;;;;;4956957;28;96329;-31
2022/10/05 06:16:45;;;;;;;18.10;14.50;;;14.30;99.90;;;;;;4955719;28;94164;-33
2022/10/05 06:19:15;;;;;;;18.73;13.82;;;14.30;99.90;;;;;;4956050;28;94745;-32
2022/10/05 06:22:05;;;;;;;19.38;13.98;;;14.30;99.90;;;;;;4956636;28;92695;-33
2022/10/05 06:24:57;;;;;;;15.82;12.43;;;14.40;99.90;;;;;;4956466;28;94780;-32
2022/10/05 06:27:33;;;;;;;18.75;13.50;;;14.40;99.90;;;;;;4956001;28;94898;-32
2022/10/05 06:30:05;;;;;;;16.00;13.05;;;14.40;99.90;;;;;;4957292;28;94371;-30
2022/10/05 06:32:49;;;;;;;16.27;14.15;;;14.40;99.90;;;;;;4956461;28;93258;-33
2022/10/05 06:35:35;;;;;;;19.80;15.07;;;14.40;99.90;;;;;;4943371;28;94796;-32
2022/10/05 06:38:31;;;;;;;17.70;15.38;;;14.50;99.90;;;;;;4942792;28;94353;-32
2022/10/05 06:41:28;;;;;;;16.27;12.65;;;14.50;99.90;;;;;;4953122;28;92668;-29
2022/10/05 06:44:04;;;;;;;16.73;14.05;;;14.50;99.90;;;;;;4961380;28;94211;-30
2022/10/05 06:46:51;;;;;;;14.93;12.70;;;14.50;99.90;;;;;;4962175;28;94389;-31
2022/10/05 06:49:39;;;;;;;16.83;14.07;;;14.50;99.90;;;;;;4961726;28;95461;-31
2022/10/05 06:52:10;;;;;;;16.10;12.10;;;14.50;99.90;;;;;;4959541;28;94356;-32
2022/10/05 06:54:38;;;;;;;13.50;12.23;;;14.50;99.90;;;;;;4955618;28;92664;-31
2022/10/05 06:57:09;;;;;;;18.50;13.27;;;14.50;99.90;;;;;;4955778;28;94894;-31
2022/10/05 06:59:42;;;;;;;18.10;12.38;;;14.50;99.90;;;;;;4956460;28;95133;-30
2022/10/05 07:02:21;;;;;;;16.08;13.43;;;14.60;99.90;;;;;;4956360;28;93483;-33
2022/10/05 07:04:47;;;;;;;18.45;14.43;;;14.60;99.90;;;;;;4959228;28;93853;-34
2022/10/05 07:07:22;;;;;;;15.55;12.02;;;14.60;99.90;;;;;;4958811;28;94687;-32
2022/10/05 07:09:54;;;;;;;15.15;12.52;;;14.60;99.90;;;;;;4958653;28;94718;-30
2022/10/05 07:12:29;;;;;;;17.08;13.45;;;14.60;99.90;;;;;;4959079;28;93353;-31
2022/10/05 07:15:20;;;;;;;18.02;12.75;;;14.60;99.90;;;;;;4959492;28;94620;-34
2022/10/05 07:18:19;;;;;;;15.30;12.13;;;14.60;99.90;;;;;;4958287;28;94682;-31
2022/10/05 07:21:22;;;;;;;16.00;13.25;;;14.60;99.90;;;;;;4959075;28;95043;-31
2022/10/05 07:24:15;;;;;;;18.05;13.23;;;14.60;99.90;;;;;;4959807;28;94543;-32
2022/10/05 07:26:45;;;;;;;13.05;11.52;;;14.70;99.90;;;;;;4958603;28;93462;-32
2022/10/05 07:29:27;;;;;;;15.13;12.45;;;14.70;99.90;;;;;;4938855;28;94283;-31
2022/10/05 07:32:12;;;;;;;17.05;13.32;;;14.80;99.90;;;;;;4946181;28;95014;-29
2022/10/05 07:34:58;;;;;;;15.82;12.60;;;14.80;99.90;;;;;;4963759;28;93127;-30
2022/10/05 07:37:56;;;;;;;14.50;12.70;;;14.80;99.90;;;;;;4970469;28;94051;-31
2022/10/05 07:40:53;;;;;;;13.05;11.60;;;14.80;99.90;;;;;;4956015;28;95760;-31
2022/10/05 07:43:36;;;;;;;12.95;11.65;;;14.80;99.90;;;;;;4965527;28;96116;-31
2022/10/05 07:46:10;;;;;;;13.02;10.20;;;14.80;99.90;;;;;;4946169;28;93237;-31
2022/10/05 07:48:58;;;;;;;13.63;11.38;;;14.90;99.90;;;;;;4940224;28;92236;-30
2022/10/05 07:51:46;;;;;;;13.45;12.02;;;14.90;99.90;;;;;;4936926;28;94807;-32
2022/10/05 07:54:50;;;;;;;15.63;12.73;;;14.90;99.90;;;;;;4954313;28;94300;-33
2022/10/05 07:57:37;;;;;;;13.20;10.95;;;15.00;99.90;;;;;;4932436;28;93757;-32
2022/10/05 08:00:05;;;;;;;13.93;11.93;;;15.00;99.90;;;;;;4961061;28;93019;-29
2022/10/05 08:02:44;;;;;;;14.33;12.53;;;15.00;99.90;;;;;;4976395;28;98135;-32
2022/10/05 08:05:18;;;;;;;11.98;10.88;;;15.10;99.90;;;;;;4935999;28;94521;-33
2022/10/05 08:07:45;;;;;;;15.15;12.13;;;15.10;99.90;;;;;;4941379;28;94604;-30
2022/10/05 08:10:21;;;;;;;13.75;12.52;;;15.10;99.90;;;;;;4956985;28;94385;-31
2022/10/05 08:13:18;;;;;;;16.23;13.00;;;15.20;99.90;;;;;;4956501;28;94570;-32
2022/10/05 08:15:47;;;;;;;15.07;10.85;;;15.20;99.90;;;;;;4955092;28;93282;-31
2022/10/05 08:18:22;;;;;;;11.63;10.10;;;15.30;99.90;;;;;;4954609;28;92511;-30
2022/10/05 08:20:50;;;;;;;14.27;11.82;;;15.30;99.90;;;;;;4956800;28;93463;-30
2022/10/05 08:23:27;;;;;;;13.30;11.02;;;15.30;99.90;;;;;;4956192;28;96311;-32
2022/10/05 08:26:24;;;;;;;19.40;10.80;;;15.40;99.90;;;;;;4956714;28;94663;-33
2022/10/05 08:29:25;;;;;;;12.05;9.82;;;15.40;99.90;;;;;;4956622;28;95367;-33
2022/10/05 08:32:02;;;;;;;15.52;9.50;;;15.50;99.90;;;;;;4957512;28;94727;-31
2022/10/05 08:34:40;;;;;;;13.02;9.85;;;15.50;99.90;;;;;;4955677;28;97407;-32
2022/10/05 08:37:21;;;;;;;13.60;12.18;;;15.50;99.90;;;;;;4956233;28;95507;-33
2022/10/05 08:40:23;;;;;;;10.43;9.40;;;15.50;99.90;;;;;;4956283;28;94144;-31
2022/10/05 08:43:26;;;;;;;12.23;9.57;;;15.60;99.90;;;;;;4938656;28;93845;-32
2022/10/05 08:46:07;;;;;;;12.85;9.57;;;15.70;99.90;;;;;;4956685;28;94837;-32
2022/10/05 08:49:18;;;;;;;12.27;11.00;;;15.70;99.90;;;;;;4956493;28;94579;-31
2022/10/05 08:52:06;;;;;;;23.60;9.95;;;15.70;99.90;;;;;;4955638;28;94557;-31
2022/10/05 08:54:40;;;;;;;;;;;15.80;99.90;;;;;;4955794;28;93292;-33
2022/10/05 08:57:43;;;;;;;12.77;10.38;;;15.80;99.90;;;;;;4956862;28;94889;-31
2022/10/05 09:00:22;;;;;;;13.38;9.52;;;15.80;99.90;;;;;;4916164;28;94104;-31
2022/10/05 09:03:12;;;;;;;9.63;8.82;;;15.80;99.90;;;;;;4948167;28;95866;-31
2022/10/05 09:05:59;;;;;;;9.75;8.85;;;15.90;99.90;;;;;;4944585;28;93201;-32
2022/10/05 09:08:38;;;;;;;8.40;7.50;;;15.90;99.90;;;;;;4974566;28;94886;-32
2022/10/05 09:11:15;;;;;;;9.75;8.85;;;16.00;99.90;;;;;;4950255;28;94515;-32
2022/10/05 09:13:52;;;;;;;12.07;9.07;;;16.10;99.90;;;;;;4973751;28;94741;-33
2022/10/05 09:16:39;;;;;;;9.25;7.93;;;16.10;99.90;;;;;;4974176;28;93723;-33
2022/10/05 09:19:32;;;;;;;9.27;8.33;;;16.20;99.90;;;;;;4973493;28;95231;-33
2022/10/05 09:22:15;;;;;;;8.40;7.55;;;16.20;99.90;;;;;;4974209;28;94505;-32
2022/10/05 09:24:46;;;;;;;11.88;9.75;;;16.30;99.90;;;;;;4950730;28;94457;-30
2022/10/05 09:27:15;;;;;;;9.30;8.30;;;16.30;99.90;;;;;;4972748;28;93061;-32
2022/10/05 09:30:19;;;;;;;25.98;8.95;;;16.40;99.90;;;;;;4974447;28;95426;-30
2022/10/05 09:33:15;;;;;;;9.85;8.18;;;16.50;99.90;;;;;;4973034;28;95612;-33
2022/10/05 09:36:02;;;;;;;7.38;6.68;;;16.50;99.90;;;;;;4973417;28;94512;-33
2022/10/05 09:38:49;;;;;;;9.13;7.88;;;16.50;99.90;;;;;;4963556;28;93260;-32
2022/10/05 09:41:45;;;;;;;14.80;8.13;;;16.50;99.90;;;;;;4972404;28;95359;-33
2022/10/05 09:44:26;;;;;;;9.52;7.18;;;16.50;99.90;;;;;;4973737;28;95017;-33
2022/10/05 09:47:28;;;;;;;7.88;7.07;;;16.50;99.90;;;;;;4963716;28;93105;-33
2022/10/05 09:50:15;;;;;;;9.70;7.60;;;16.50;99.90;;;;;;4973471;28;92823;-33
2022/10/05 09:53:14;;;;;;;8.00;7.30;;;16.50;99.90;;;;;;4955408;28;93564;-30
2022/10/05 09:56:11;;;;;;;7.95;6.85;;;16.50;99.90;;;;;;4954621;28;94015;-33
2022/10/05 09:58:49;;;;;;;12.35;7.00;;;16.40;99.90;;;;;;4955280;28;94077;-31
2022/10/05 10:01:27;;;;;;;11.15;7.90;;;16.40;99.90;;;;;;4954535;28;92696;-33
2022/10/05 10:04:25;;;;;;;12.30;6.70;;;16.50;99.90;;;;;;4954314;28;95090;-31
2022/10/05 10:07:15;;;;;;;10.13;8.40;;;16.40;99.90;;;;;;4954653;28;94614;-31
2022/10/05 10:10:11;;;;;;;12.70;7.20;;;16.40;99.90;;;;;;4955495;28;92152;-31
2022/10/05 10:13:03;;;;;;;9.05;8.15;;;16.40;99.90;;;;;;4955123;28;92715;-32
2022/10/05 10:15:40;;;;;;;8.68;7.95;;;16.40;99.90;;;;;;4954016;28;94586;-31
2022/10/05 10:18:17;;;;;;;8.35;7.45;;;16.40;99.90;;;;;;4954718;28;94984;-33
2022/10/05 10:21:09;;;;;;;10.98;7.72;;;16.40;99.90;;;;;;4955130;28;93964;-29
2022/10/05 10:24:03;;;;;;;12.75;6.68;;;16.30;99.90;;;;;;4954961;28;94490;-30
2022/10/05 10:26:57;;;;;;;12.55;7.85;;;16.30;99.90;;;;;;4953177;28;95659;-31
2022/10/05 10:29:44;;;;;;;9.30;8.25;;;16.40;99.90;;;;;;4954428;28;95434;-32
2022/10/05 10:32:47;;;;;;;10.85;8.32;;;16.40;99.90;;;;;;4955232;28;93551;-32
2022/10/05 10:35:18;;;;;;;8.70;7.90;;;16.40;99.90;;;;;;4953740;28;92184;-32
2022/10/05 10:38:11;;;;;;;8.27;7.35;;;16.40;99.90;;;;;;4953231;28;94511;-32
2022/10/05 10:40:53;;;;;;;7.53;6.78;;;16.40;99.90;;;;;;4954268;28;94625;-31
2022/10/05 10:43:29;;;;;;;8.98;6.13;;;16.40;99.90;;;;;;4954226;28;92109;-31
2022/10/05 10:46:19;;;;;;;8.88;7.95;;;16.40;99.90;;;;;;4954901;28;93941;-31
2022/10/05 10:48:50;;;;;;;11.68;8.38;;;16.40;99.90;;;;;;4954137;28;94817;-31
2022/10/05 10:51:53;;;;;;;13.98;7.80;;;16.50;99.90;;;;;;4952855;28;94575;-31
2022/10/05 10:54:24;;;;;;;9.15;7.57;;;16.50;99.90;;;;;;4954134;28;95682;-32
2022/10/05 10:57:14;;;;;;;8.65;7.38;;;16.50;99.90;;;;;;4954731;28;93454;-32
2022/10/05 11:00:06;;;;;;;7.78;7.05;;;16.60;99.90;;;;;;4954286;28;94642;-29
2022/10/05 11:03:02;;;;;;;10.20;7.32;;;16.60;99.90;;;;;;4953835;28;95386;-30
2022/10/05 11:05:33;;;;;;;7.75;7.05;;;16.60;99.90;;;;;;4953472;28;94681;-30
2022/10/05 11:08:28;;;;;;;9.25;7.13;;;16.70;99.90;;;;;;4954133;28;93982;-31
2022/10/05 11:10:57;;;;;;;8.25;7.20;;;16.70;99.90;;;;;;4954069;28;95849;-32
2022/10/05 11:13:36;;;;;;;6.22;5.60;;;16.80;99.90;;;;;;4953604;28;95252;-32
2022/10/05 11:16:22;;;;;;;14.80;5.85;;;16.80;99.90;;;;;;4953542;28;92679;-33
2022/10/05 11:18:51;;;;;;;6.03;5.45;;;16.90;99.90;;;;;;4953984;28;94282;-32
2022/10/05 11:21:35;;;;;;;7.25;5.97;;;16.90;99.90;;;;;;4953574;28;95734;-32
2022/10/05 11:24:07;;;;;;;15.27;6.15;;;17.00;99.90;;;;;;4953632;28;96167;-31
2022/10/05 11:27:10;;;;;;;6.72;5.00;;;16.90;99.90;;;;;;4954047;28;92563;-31
2022/10/05 11:29:51;;;;;;;6.38;5.78;;;17.00;99.90;;;;;;4953937;28;94389;-30
2022/10/05 11:32:16;;;;;;;6.53;5.15;;;17.10;99.90;;;;;;4953551;28;95040;-31
2022/10/05 11:35:09;;;;;;;5.47;4.97;;;17.10;99.90;;;;;;4954084;28;94479;-34
2022/10/05 11:37:44;;;;;;;5.93;5.43;;;17.10;99.90;;;;;;4953941;28;92702;-31
2022/10/05 11:40:25;;;;;;;10.20;5.57;;;17.20;99.90;;;;;;4954394;28;92929;-32
2022/10/05 11:43:27;;;;;;;6.45;5.82;;;17.20;99.90;;;;;;4953710;28;95048;-34
2022/10/05 11:46:15;;;;;;;6.03;5.60;;;17.20;99.90;;;;;;4950261;28;94172;-33
2022/10/05 11:49:02;;;;;;;19.17;6.68;;;17.30;99.90;;;;;;4954773;28;95500;-31
2022/10/05 11:51:55;;;;;;;8.45;6.43;;;17.20;99.90;;;;;;4956363;28;93675;-32
2022/10/05 11:54:37;;;;;;;7.28;5.78;;;17.30;99.90;;;;;;4956411;28;94809;-33
2022/10/05 11:57:10;;;;;;;7.50;6.85;;;17.30;99.90;;;;;;4956255;28;94548;-32
2022/10/05 11:59:55;;;;;;;9.05;7.50;;;17.30;99.90;;;;;;4957220;28;92178;-33
2022/10/05 12:03:14;;;;;;;6.55;5.65;;;17.30;99.90;;;;;;4956325;28;94070;-31
2022/10/05 12:05:50;;;;;;;7.85;6.32;;;17.40;99.90;;;;;;4934663;28;94809;-31
2022/10/05 12:08:39;;;;;;;6.22;5.63;;;17.30;99.90;;;;;;4956562;28;94623;-32
2022/10/05 12:11:33;;;;;;;8.30;6.30;;;17.30;99.90;;;;;;4956874;28;93446;-31
2022/10/05 12:14:12;;;;;;;7.03;6.05;;;17.30;99.90;;;;;;4956199;28;95018;-34
2022/10/05 12:17:17;;;;;;;6.70;5.60;;;17.30;99.90;;;;;;4955515;28;95195;-34
2022/10/05 12:19:55;;;;;;;8.68;5.47;;;17.30;99.90;;;;;;4926277;28;95500;-34
2022/10/05 12:22:30;;;;;;;8.63;6.80;;;17.30;99.90;;;;;;4957327;28;94373;-32
2022/10/05 12:25:25;;;;;;;12.13;5.85;;;17.30;99.90;;;;;;4955469;28;92645;-34
2022/10/05 12:27:55;;;;;;;7.93;5.75;;;17.30;99.90;;;;;;4955952;28;95076;-34
2022/10/05 12:30:33;;;;;;;5.53;4.97;;;17.40;99.90;;;;;;4955558;28;94550;-33
2022/10/05 12:33:31;;;;;;;6.05;4.85;;;17.30;99.90;;;;;;4956231;28;93358;-30
2022/10/05 12:36:02;;;;;;;6.88;4.20;;;17.40;99.90;;;;;;4955000;28;91475;-32
2022/10/05 12:38:36;;;;;;;5.00;4.57;;;17.40;99.90;;;;;;4949780;28;94688;-31
2022/10/05 12:41:27;;;;;;;10.50;5.80;;;17.40;99.90;;;;;;4949528;28;94897;-32
2022/10/05 12:44:15;;;;;;;6.03;5.15;;;17.40;99.90;;;;;;4958002;28;94165;-33
2022/10/05 12:46:59;;;;;;;5.75;5.03;;;17.40;99.90;;;;;;4963439;28;93491;-31
2022/10/05 12:49:31;;;;;;;4.78;4.25;;;17.40;99.90;;;;;;4950909;28;95143;-32
2022/10/05 12:52:03;;;;;;;7.95;5.82;;;17.30;99.90;;;;;;5013435;22;94616;-32
2022/10/05 12:54:58;;;;;;;5.63;5.13;;;17.40;99.90;;;;;;4975739;28;94824;-34
2022/10/05 12:57:47;;;;;;;4.65;4.25;;;17.40;99.90;;;;;;4975808;28;94847;-31
2022/10/05 13:00:16;;;;;;;9.35;5.47;;;17.40;99.90;;;;;;4975276;28;94790;-33
2022/10/05 13:02:52;;;;;;;6.10;5.50;;;17.40;99.90;;;;;;4976041;28;94979;-31
2022/10/05 13:05:50;;;;;;;8.25;5.32;;;17.40;99.90;;;;;;4975284;28;93270;-30
2022/10/05 13:08:47;;;;;;;7.80;4.85;;;17.50;99.90;;;;;;4950880;28;93767;-32
2022/10/05 13:11:34;;;;;;;5.68;5.13;;;17.50;99.90;;;;;;4974319;28;95741;-31
2022/10/05 13:14:17;;;;;;;5.43;4.80;;;17.60;99.90;;;;;;4974660;28;95402;-32
2022/10/05 13:17:02;;;;;;;6.18;4.70;;;17.70;99.90;;;;;;4975777;28;94220;-33
2022/10/05 13:19:38;;;;;;;5.68;5.05;;;17.70;99.90;;;;;;4975609;28;93706;-32
2022/10/05 13:22:41;;;;;;;5.00;4.40;;;17.70;99.90;;;;;;4957592;28;94350;-33
2022/10/05 13:25:13;;;;;;;7.47;4.97;;;17.70;99.90;;;;;;4975162;28;94424;-31
2022/10/05 13:27:54;;;;;;;4.78;3.88;;;17.80;99.90;;;;;;4975888;28;94381;-31
2022/10/05 13:30:20;;;;;;;6.28;4.82;;;17.80;99.90;;;;;;4975718;28;92709;-33
2022/10/05 13:33:03;;;;;;;4.28;3.90;;;17.80;99.90;;;;;;4976130;28;94944;-30
2022/10/05 13:35:47;;;;;;;3.80;3.53;;;17.80;99.90;;;;;;4974591;28;94558;-33
2022/10/05 13:38:41;;;;;;;7.28;4.85;;;17.80;99.90;;;;;;4974496;28;95299;-31
2022/10/05 13:41:26;;;;;;;4.93;4.53;;;17.90;99.90;;;;;;4974835;28;94426;-31
2022/10/05 13:44:12;;;;;;;6.07;4.22;;;18.00;99.90;;;;;;4975510;28;94843;-32
2022/10/05 13:46:47;;;;;;;6.03;3.80;;;18.00;99.90;;;;;;4975291;28;94830;-33
2022/10/05 13:49:43;;;;;;;5.55;3.90;;;18.00;99.90;;;;;;4974461;28;93063;-33
2022/10/05 13:52:22;;;;;;;4.55;3.90;;;18.10;99.90;;;;;;4974632;28;94137;-34
2022/10/05 13:55:18;;;;;;;4.00;3.70;;;18.10;99.90;;;;;;4974800;28;94948;-32
2022/10/05 13:58:14;;;;;;;4.88;4.30;;;18.10;99.90;;;;;;4975317;28;94543;-32
2022/10/05 14:00:48;;;;;;;4.55;4.15;;;18.10;99.90;;;;;;4975188;28;93166;-31